createdAt,value
2023-04-16T00:01:37.338Z,10.77
2023-04-16T00:04:04.463Z,11.82
2023-04-16T00:06:32.210Z,12.25
2023-04-16T00:08:59.093Z,12.45
2023-04-16T00:11:25.918Z,11.20
2023-04-16T00:13:52.676Z,17.10
2023-04-16T00:16:19.428Z,11.88
2023-04-16T00:18:46.649Z,11.88
2023-04-16T00:21:13.379Z,11.73
2023-04-16T00:23:40.219Z,9.40
2023-04-16T00:26:06.956Z,10.65
2023-04-16T00:28:33.695Z,10.75
2023-04-16T00:31:00.533Z,10.82
2023-04-16T00:33:27.210Z,9.95
2023-04-16T00:35:53.925Z,10.30
2023-04-16T00:38:20.875Z,9.85
2023-04-16T00:40:47.588Z,13.45
2023-04-16T00:43:14.314Z,10.07
2023-04-16T00:45:40.994Z,7.00
2023-04-16T00:48:07.814Z,8.32
2023-04-16T00:50:34.758Z,11.50
2023-04-16T00:53:01.645Z,14.65
2023-04-16T00:55:28.379Z,7.93
2023-04-16T00:57:55.110Z,11.50
2023-04-16T01:00:21.776Z,8.90
2023-04-16T01:02:48.596Z,9.38
2023-04-16T01:05:15.528Z,10.95
2023-04-16T01:07:42.268Z,8.93
2023-04-16T01:10:08.949Z,9.00
2023-04-16T01:12:35.690Z,9.63
2023-04-16T01:15:02.357Z,10.27
2023-04-16T01:17:29.152Z,9.15
2023-04-16T01:19:55.989Z,10.55
2023-04-16T01:22:22.784Z,15.20
2023-04-16T01:24:49.433Z,8.23
2023-04-16T01:27:16.357Z,10.48
2023-04-16T01:29:43.077Z,9.63
2023-04-16T01:32:09.775Z,13.55
2023-04-16T01:34:36.492Z,13.07
2023-04-16T01:37:03.159Z,12.05
2023-04-16T01:39:29.932Z,10.32
2023-04-16T01:41:57.240Z,14.07
2023-04-16T01:44:23.920Z,10.32
2023-04-16T01:46:50.639Z,12.77
2023-04-16T01:49:17.436Z,11.25
2023-04-16T01:51:44.138Z,10.98
2023-04-16T01:54:10.958Z,11.20
2023-04-16T01:56:37.673Z,10.65
2023-04-16T01:59:04.365Z,11.07
2023-04-16T02:01:31.089Z,13.88
2023-04-16T02:03:57.860Z,10.30
2023-04-16T02:06:24.584Z,13.63
2023-04-16T02:08:51.374Z,9.65
2023-04-16T02:11:18.118Z,9.80
2023-04-16T02:13:44.852Z,8.73
2023-04-16T02:16:11.657Z,9.65
2023-04-16T02:18:38.376Z,11.93
2023-04-16T02:21:06.566Z,13.95
2023-04-16T02:23:33.342Z,12.75
2023-04-16T02:26:01.239Z,11.55
2023-04-16T02:28:27.961Z,16.77
2023-04-16T02:30:54.819Z,16.30
2023-04-16T02:33:21.593Z,12.05
2023-04-16T02:35:48.793Z,12.35
2023-04-16T02:38:15.466Z,10.95
2023-04-16T02:40:42.257Z,8.77
2023-04-16T02:43:08.995Z,12.85
2023-04-16T02:45:35.827Z,10.57
2023-04-16T02:48:02.680Z,17.05
2023-04-16T02:50:29.531Z,9.43
2023-04-16T02:52:56.269Z,7.57
2023-04-16T02:55:23.118Z,9.52
2023-04-16T02:57:49.823Z,9.35
2023-04-16T03:00:16.586Z,8.65
2023-04-16T03:02:43.443Z,7.78
2023-04-16T03:05:10.335Z,9.07
2023-04-16T03:07:39.223Z,9.55
2023-04-16T03:10:06.022Z,9.40
2023-04-16T03:12:32.730Z,8.05
2023-04-16T03:14:59.405Z,19.13
2023-04-16T03:17:26.198Z,7.78
2023-04-16T03:19:52.964Z,8.77
2023-04-16T03:22:19.795Z,8.88
2023-04-16T03:24:46.577Z,6.68
2023-04-16T03:27:13.253Z,7.45
2023-04-16T03:29:40.006Z,7.25
2023-04-16T03:32:06.910Z,6.10
2023-04-16T03:34:33.572Z,7.43
2023-04-16T03:37:00.413Z,7.25
2023-04-16T03:39:27.187Z,7.78
2023-04-16T03:41:53.848Z,9.40
2023-04-16T03:44:20.875Z,8.60
2023-04-16T03:46:47.613Z,9.38
2023-04-16T03:49:14.400Z,8.27
2023-04-16T03:51:41.082Z,8.75
2023-04-16T03:54:07.781Z,8.35
2023-04-16T03:56:34.436Z,10.25
2023-04-16T03:59:01.178Z,6.50
2023-04-16T04:01:27.900Z,6.05
2023-04-16T04:03:54.694Z,5.80
2023-04-16T04:06:21.584Z,4.65
2023-04-16T04:08:48.254Z,8.15
2023-04-16T04:11:14.934Z,7.45
2023-04-16T04:13:41.652Z,11.15
2023-04-16T04:16:08.413Z,8.25
2023-04-16T04:18:35.134Z,7.53
2023-04-16T04:21:01.870Z,10.45
2023-04-16T04:23:28.565Z,9.10
2023-04-16T04:25:55.295Z,7.78
2023-04-16T04:28:21.908Z,8.13
2023-04-16T04:30:48.628Z,7.47
2023-04-16T04:33:15.317Z,6.68
2023-04-16T04:35:41.988Z,9.82
2023-04-16T04:38:08.648Z,6.38
2023-04-16T04:40:35.384Z,7.80
2023-04-16T04:43:02.088Z,5.13
2023-04-16T04:45:31.134Z,6.85
2023-04-16T04:47:58.633Z,6.47
2023-04-16T04:50:25.519Z,6.32
2023-04-16T04:52:52.170Z,6.00
2023-04-16T04:55:18.863Z,8.60
2023-04-16T04:57:45.547Z,7.85
2023-04-16T05:00:12.217Z,7.97
2023-04-16T05:02:38.946Z,8.45
2023-04-16T05:05:05.893Z,6.63
2023-04-16T05:07:32.650Z,7.40
2023-04-16T05:09:59.381Z,8.75
2023-04-16T05:12:26.082Z,7.63
2023-04-16T05:14:52.718Z,6.78
2023-04-16T05:17:19.467Z,4.53
2023-04-16T05:19:46.211Z,5.85
2023-04-16T05:22:13.178Z,7.70
2023-04-16T05:24:39.909Z,6.40
2023-04-16T05:27:06.645Z,7.13
2023-04-16T05:29:33.367Z,5.63
2023-04-16T05:32:00.120Z,13.55
2023-04-16T05:34:26.800Z,7.47
2023-04-16T05:36:53.466Z,7.53
2023-04-16T05:39:20.363Z,9.50
2023-04-16T05:41:47.061Z,7.75
2023-04-16T05:44:15.297Z,13.15
2023-04-16T05:46:41.960Z,7.80
2023-04-16T05:49:08.961Z,7.13
2023-04-16T05:51:35.949Z,13.80
2023-04-16T05:54:02.627Z,8.80
2023-04-16T05:56:29.371Z,6.97
2023-04-16T05:58:56.049Z,6.65
2023-04-16T06:01:22.936Z,9.52
2023-04-16T06:03:49.784Z,11.48
2023-04-16T06:06:16.535Z,6.05
2023-04-16T06:08:43.237Z,8.98
2023-04-16T06:11:09.902Z,9.32
2023-04-16T06:13:36.727Z,9.70
2023-04-16T06:16:03.410Z,14.00
2023-04-16T06:18:30.166Z,10.65
2023-04-16T06:20:58.858Z,10.60
2023-04-16T06:23:25.763Z,14.40
2023-04-16T06:25:52.513Z,14.98
2023-04-16T06:28:19.147Z,9.52
2023-04-16T06:30:45.845Z,10.82
2023-04-16T06:33:12.603Z,12.02
2023-04-16T06:35:39.349Z,10.68
2023-04-16T06:38:06.115Z,9.77
2023-04-16T06:40:32.745Z,14.38
2023-04-16T06:42:59.446Z,9.77
2023-04-16T06:45:26.128Z,15.73
2023-04-16T06:47:52.901Z,14.15
2023-04-16T06:50:19.799Z,11.52
2023-04-16T06:52:46.613Z,14.75
2023-04-16T06:55:13.382Z,10.00
2023-04-16T06:57:40.968Z,13.38
2023-04-16T07:00:07.729Z,15.70
2023-04-16T07:02:34.628Z,11.10
2023-04-16T07:05:01.486Z,10.00
2023-04-16T07:07:28.097Z,10.90
2023-04-16T07:09:54.775Z,11.48
2023-04-16T07:12:22.595Z,9.80
2023-04-16T07:14:49.700Z,7.88
2023-04-16T07:17:16.362Z,9.77
2023-04-16T07:19:43.015Z,9.60
2023-04-16T07:22:09.721Z,8.38
2023-04-16T07:24:36.531Z,17.27
2023-04-16T07:27:03.166Z,10.93
2023-04-16T07:29:29.821Z,13.43
2023-04-16T07:31:56.795Z,8.30
2023-04-16T07:34:23.564Z,12.18
2023-04-16T07:36:50.559Z,16.92
2023-04-16T07:39:17.326Z,9.27
2023-04-16T07:41:44.097Z,9.80
2023-04-16T07:44:10.917Z,13.52
2023-04-16T07:46:46.103Z,8.50
2023-04-16T07:49:13.462Z,14.23
2023-04-16T07:51:40.184Z,9.20
2023-04-16T07:54:06.870Z,10.30
2023-04-16T07:56:33.557Z,10.75
2023-04-16T07:59:08.013Z,7.15
2023-04-16T08:01:45.801Z,8.07
2023-04-16T08:04:12.641Z,10.23
2023-04-16T08:06:39.387Z,9.05
2023-04-16T08:09:06.153Z,15.25
2023-04-16T08:11:33.266Z,5.13
2023-04-16T08:13:59.930Z,9.57
2023-04-16T08:16:27.153Z,7.32
2023-04-16T08:18:54.122Z,13.40
2023-04-16T08:21:20.817Z,8.70
2023-04-16T08:23:48.203Z,6.63
2023-04-16T08:26:14.868Z,4.20
2023-04-16T08:28:41.553Z,6.47
2023-04-16T08:31:08.317Z,12.60
2023-04-16T08:33:35.059Z,4.50
2023-04-16T08:36:01.784Z,6.55
2023-04-16T08:38:28.504Z,5.68
2023-04-16T08:40:55.158Z,5.53
2023-04-16T08:43:21.823Z,4.47
2023-04-16T08:45:48.647Z,4.55
2023-04-16T08:48:15.677Z,4.35
2023-04-16T08:50:42.340Z,7.63
2023-04-16T08:53:10.276Z,7.00
2023-04-16T08:55:37.792Z,11.25
2023-04-16T08:58:04.615Z,5.63
2023-04-16T09:00:31.517Z,3.75
2023-04-16T09:02:58.480Z,4.85
2023-04-16T09:05:26.416Z,4.28
2023-04-16T09:07:53.076Z,4.47
2023-04-16T09:10:19.789Z,4.53
2023-04-16T09:12:46.442Z,5.28
2023-04-16T09:15:13.091Z,6.13
2023-04-16T09:17:39.804Z,7.35
2023-04-16T09:20:06.454Z,3.90
2023-04-16T09:22:33.545Z,7.95
2023-04-16T09:25:00.318Z,4.57
2023-04-16T09:27:27.120Z,4.82
2023-04-16T09:29:53.852Z,5.90
2023-04-16T09:32:20.576Z,6.00
2023-04-16T09:34:47.218Z,5.32
2023-04-16T09:37:13.882Z,5.75
2023-04-16T09:39:40.492Z,4.95
2023-04-16T09:42:07.214Z,6.53
2023-04-16T09:44:33.865Z,4.78
2023-04-16T09:47:00.534Z,4.32
2023-04-16T09:49:27.263Z,5.85
2023-04-16T09:51:56.147Z,7.00
2023-04-16T09:54:22.773Z,5.60
2023-04-16T09:56:49.542Z,4.00
2023-04-16T09:59:16.176Z,4.63
2023-04-16T10:01:42.925Z,4.43
2023-04-16T10:04:09.676Z,4.93
2023-04-16T10:06:36.401Z,3.90
2023-04-16T10:09:03.020Z,3.20
2023-04-16T10:11:29.653Z,3.97
2023-04-16T10:13:56.386Z,3.95
2023-04-16T10:16:23.685Z,3.25
2023-04-16T10:18:50.723Z,6.15
2023-04-16T10:21:17.366Z,4.93
2023-04-16T10:23:44.069Z,3.90
2023-04-16T10:26:10.910Z,3.08
2023-04-16T10:28:37.558Z,2.85
2023-04-16T10:31:04.266Z,3.70
2023-04-16T10:33:31.036Z,2.17
2023-04-16T10:36:07.078Z,2.97
2023-04-16T10:38:35.410Z,2.70
2023-04-16T10:41:02.203Z,1.73
2023-04-16T10:43:28.938Z,2.92
2023-04-16T10:45:55.931Z,1.90
2023-04-16T10:48:22.644Z,2.67
2023-04-16T10:50:50.389Z,2.20
2023-04-16T10:53:18.753Z,2.53
2023-04-16T10:55:45.395Z,3.35
2023-04-16T10:58:12.043Z,3.50
2023-04-16T11:00:38.752Z,2.92
2023-04-16T11:03:05.488Z,4.03
2023-04-16T11:05:32.724Z,2.80
2023-04-16T11:07:59.742Z,4.60
2023-04-16T11:10:26.363Z,2.20
2023-04-16T11:12:53.011Z,2.90
2023-04-16T11:15:19.713Z,2.65
2023-04-16T11:17:46.400Z,2.35
2023-04-16T11:20:18.105Z,1.42
2023-04-16T11:22:47.340Z,1.77
2023-04-16T11:25:13.981Z,2.47
2023-04-16T11:27:40.680Z,2.25
2023-04-16T11:30:09.581Z,1.98
2023-04-16T11:32:36.258Z,1.52
2023-04-16T11:35:04.618Z,4.90
2023-04-16T11:37:32.053Z,3.13
2023-04-16T11:39:58.732Z,2.92
2023-04-16T11:42:26.827Z,2.55
2023-04-16T11:44:54.150Z,1.75
2023-04-16T11:47:20.943Z,1.73
2023-04-16T11:49:47.741Z,2.17
2023-04-16T11:52:14.431Z,2.08
2023-04-16T11:54:41.125Z,1.48
2023-04-16T11:57:07.968Z,1.70
2023-04-16T11:59:34.690Z,2.03
2023-04-16T12:02:01.578Z,2.22
2023-04-16T12:04:29.603Z,1.70
2023-04-16T12:06:56.406Z,1.60
2023-04-16T12:09:23.338Z,2.05
2023-04-16T12:11:50.013Z,5.68
2023-04-16T12:14:16.775Z,2.10
2023-04-16T12:16:43.515Z,3.75
2023-04-16T12:19:10.438Z,1.88
2023-04-16T12:21:37.396Z,1.60
2023-04-16T12:24:04.058Z,2.58
2023-04-16T12:26:30.731Z,2.63
2023-04-16T12:28:57.438Z,1.83
2023-04-16T12:31:24.198Z,1.52
2023-04-16T12:33:50.986Z,4.78
2023-04-16T12:36:17.708Z,3.35
2023-04-16T12:38:44.410Z,2.42
2023-04-16T12:41:11.316Z,2.20
2023-04-16T12:43:38.062Z,1.92
2023-04-16T12:46:04.925Z,2.22
2023-04-16T12:48:32.694Z,1.30
2023-04-16T12:50:59.373Z,2.17
2023-04-16T12:53:26.236Z,0.80
2023-04-16T12:55:52.897Z,2.50
2023-04-16T12:58:19.518Z,2.53
2023-04-16T13:00:46.330Z,2.00
2023-04-16T13:03:13.634Z,2.05
2023-04-16T13:05:40.495Z,2.90
2023-04-16T13:08:07.250Z,2.63
2023-04-16T13:10:33.917Z,4.22
2023-04-16T13:13:00.769Z,2.65
2023-04-16T13:15:27.456Z,2.97
2023-04-16T13:17:54.234Z,2.25
2023-04-16T13:20:22.466Z,3.90
2023-04-16T13:22:50.689Z,2.85
2023-04-16T13:25:17.361Z,1.70
2023-04-16T13:27:44.089Z,1.73
2023-04-16T13:30:11.128Z,3.47
2023-04-16T13:32:38.016Z,1.80
2023-04-16T13:35:04.767Z,15.05
2023-04-16T13:37:31.469Z,5.05
2023-04-16T13:40:01.133Z,4.63
2023-04-16T13:42:28.565Z,4.03
2023-04-16T13:44:55.299Z,2.55
2023-04-16T13:47:22.059Z,2.15
2023-04-16T13:49:48.834Z,2.00
2023-04-16T13:52:15.697Z,3.78
2023-04-16T13:54:42.842Z,2.10
2023-04-16T13:57:09.650Z,1.77
2023-04-16T13:59:36.342Z,1.67
2023-04-16T14:02:03.052Z,4.28
2023-04-16T14:04:29.728Z,1.52
2023-04-16T14:06:56.400Z,3.13
2023-04-16T14:09:23.038Z,2.25
2023-04-16T14:11:49.682Z,1.60
2023-04-16T14:14:16.424Z,2.72
2023-04-16T14:16:43.176Z,2.10
2023-04-16T14:19:10.818Z,3.92
2023-04-16T14:21:37.723Z,4.05
2023-04-16T14:24:04.337Z,2.08
2023-04-16T14:26:31.116Z,4.03
2023-04-16T14:28:57.863Z,3.10
2023-04-16T14:31:24.637Z,2.63
2023-04-16T14:33:51.315Z,1.60
2023-04-16T14:36:18.126Z,2.50
2023-04-16T14:38:44.860Z,1.95
2023-04-16T14:41:12.627Z,2.67
2023-04-16T14:43:41.327Z,2.03
2023-04-16T14:46:08.092Z,1.50
2023-04-16T14:48:34.759Z,2.15
2023-04-16T14:51:01.645Z,1.80
2023-04-16T14:53:29.610Z,1.10
2023-04-16T14:55:58.985Z,2.20
2023-04-16T14:58:25.902Z,3.20
2023-04-16T15:00:52.600Z,4.22
2023-04-16T15:03:19.708Z,2.53
2023-04-16T15:05:50.871Z,1.52
2023-04-16T15:08:17.517Z,2.85
2023-04-16T15:10:45.860Z,3.65
2023-04-16T15:13:12.538Z,2.35
2023-04-16T15:15:39.162Z,2.95
2023-04-16T15:18:06.068Z,1.38
2023-04-16T15:20:33.055Z,1.48
2023-04-16T15:22:59.843Z,4.18
2023-04-16T15:25:26.556Z,1.13
2023-04-16T15:27:53.323Z,4.32
2023-04-16T15:30:20.116Z,1.25
2023-04-16T15:32:47.032Z,1.25
2023-04-16T15:35:14.053Z,3.15
2023-04-16T15:37:41.164Z,1.52
2023-04-16T15:40:11.124Z,1.50
2023-04-16T15:42:37.852Z,1.85
2023-04-16T15:45:04.644Z,1.17
2023-04-16T15:47:31.403Z,2.15
2023-04-16T15:49:58.144Z,1.20
2023-04-16T15:52:24.817Z,2.13
2023-04-16T15:54:51.415Z,1.13
2023-04-16T15:57:18.110Z,2.13
2023-04-16T15:59:52.908Z,1.88
2023-04-16T16:02:30.793Z,3.53
2023-04-16T16:04:57.848Z,2.55
2023-04-16T16:07:25.363Z,2.28
2023-04-16T16:09:53.189Z,2.45
2023-04-16T16:12:20.148Z,3.33
2023-04-16T16:14:47.028Z,3.13
2023-04-16T16:17:13.776Z,4.55
2023-04-16T16:19:40.510Z,1.88
2023-04-16T16:22:07.882Z,1.50
2023-04-16T16:24:34.607Z,2.63
2023-04-16T16:27:01.700Z,2.05
2023-04-16T16:29:28.347Z,4.80
2023-04-16T16:31:55.032Z,1.70
2023-04-16T16:34:21.721Z,1.25
2023-04-16T16:36:48.409Z,1.88
2023-04-16T16:39:15.138Z,2.10
2023-04-16T16:41:42.343Z,2.05
2023-04-16T16:44:09.082Z,1.35
2023-04-16T16:46:36.735Z,1.98
2023-04-16T16:49:09.445Z,2.00
2023-04-16T16:51:36.306Z,1.60
2023-04-16T16:54:03.102Z,3.33
2023-04-16T16:56:29.783Z,2.80
2023-04-16T16:58:56.903Z,1.27
2023-04-16T17:01:23.605Z,1.67
2023-04-16T17:03:50.643Z,0.93
2023-04-16T17:06:17.398Z,3.35
2023-04-16T17:08:44.220Z,0.90
2023-04-16T17:11:11.084Z,1.98
2023-04-16T17:13:37.820Z,7.38
2023-04-16T17:16:04.517Z,0.98
2023-04-16T17:18:31.230Z,4.05
2023-04-16T17:20:57.898Z,5.85
2023-04-16T17:23:24.613Z,1.85
2023-04-16T17:25:51.342Z,3.10
2023-04-16T17:28:18.073Z,2.45
2023-04-16T17:30:44.725Z,2.28
2023-04-16T17:33:11.579Z,2.63
2023-04-16T17:35:38.375Z,3.13
2023-04-16T17:38:05.169Z,1.67
2023-04-16T17:40:31.860Z,2.50
2023-04-16T17:42:58.624Z,1.75
2023-04-16T17:45:25.577Z,1.50
2023-04-16T17:47:52.285Z,1.67
2023-04-16T17:50:19.001Z,2.10
2023-04-16T17:52:47.516Z,3.25
2023-04-16T17:55:14.192Z,1.88
2023-04-16T17:57:41.086Z,2.70
2023-04-16T18:00:11.327Z,1.40
2023-04-16T18:02:41.700Z,2.38
2023-04-16T18:05:08.478Z,3.37
2023-04-16T18:07:35.742Z,1.95
2023-04-16T18:10:02.420Z,2.85
2023-04-16T18:12:29.229Z,1.15
2023-04-16T18:14:56.031Z,1.70
2023-04-16T18:17:23.384Z,2.85
2023-04-16T18:19:50.281Z,2.28
2023-04-16T18:22:17.093Z,2.15
2023-04-16T18:24:43.890Z,3.67
2023-04-16T18:27:11.984Z,2.03
2023-04-16T18:29:40.552Z,2.47
2023-04-16T18:32:09.890Z,1.85
2023-04-16T18:34:38.711Z,2.83
2023-04-16T18:37:08.707Z,2.45
2023-04-16T18:39:36.985Z,2.20
2023-04-16T18:42:03.999Z,4.03
2023-04-16T18:44:30.766Z,1.77
2023-04-16T18:46:57.617Z,1.85
2023-04-16T18:49:24.448Z,3.50
2023-04-16T18:51:51.541Z,3.58
2023-04-16T18:54:20.053Z,1.77
2023-04-16T18:56:46.732Z,5.88
2023-04-16T18:59:13.840Z,5.90
2023-04-16T19:01:43.791Z,2.50
2023-04-16T19:04:13.011Z,7.95
2023-04-16T19:06:40.298Z,3.85
2023-04-16T19:09:08.409Z,2.80
2023-04-16T19:11:36.856Z,5.30
2023-04-16T19:14:05.538Z,5.00
2023-04-16T19:16:32.267Z,2.95
2023-04-16T19:18:59.043Z,3.25
2023-04-16T19:21:26.135Z,2.85
2023-04-16T19:23:52.806Z,3.83
2023-04-16T19:26:19.590Z,3.08
2023-04-16T19:28:46.352Z,3.45
2023-04-16T19:31:13.086Z,4.22
2023-04-16T19:33:41.230Z,2.55
2023-04-16T19:36:08.020Z,3.85
2023-04-16T19:38:34.655Z,3.20
2023-04-16T19:41:01.349Z,2.83
2023-04-16T19:43:30.896Z,3.90
2023-04-16T19:45:57.964Z,5.57
2023-04-16T19:48:24.682Z,4.20
2023-04-16T19:50:51.480Z,4.88
2023-04-16T19:53:18.327Z,2.75
2023-04-16T19:55:45.087Z,5.63
2023-04-16T19:58:11.909Z,3.20
2023-04-16T20:00:38.693Z,2.97
2023-04-16T20:03:05.669Z,3.15
2023-04-16T20:05:32.951Z,12.00
2023-04-16T20:07:59.677Z,3.95
2023-04-16T20:10:26.685Z,2.60
2023-04-16T20:12:53.492Z,4.22
2023-04-16T20:15:20.163Z,3.42
2023-04-16T20:17:47.103Z,11.07
2023-04-16T20:20:15.922Z,2.70
2023-04-16T20:22:43.205Z,2.22
2023-04-16T20:25:10.145Z,2.72
2023-04-16T20:27:36.929Z,2.38
2023-04-16T20:30:04.317Z,3.15
2023-04-16T20:32:31.163Z,5.30
2023-04-16T20:34:58.120Z,2.80
2023-04-16T20:37:24.876Z,3.70
2023-04-16T20:39:56.362Z,4.85
2023-04-16T20:42:23.334Z,4.00
2023-04-16T20:44:56.481Z,3.83
2023-04-16T20:47:23.405Z,8.48
2023-04-16T20:49:50.559Z,2.75
2023-04-16T20:52:17.404Z,10.40
2023-04-16T20:54:44.246Z,5.03
2023-04-16T20:57:10.985Z,5.13
2023-04-16T20:59:37.660Z,4.70
2023-04-16T21:02:04.444Z,3.20
2023-04-16T21:04:31.285Z,3.60
2023-04-16T21:06:58.138Z,4.55
2023-04-16T21:09:24.810Z,2.95
2023-04-16T21:11:51.525Z,3.22
2023-04-16T21:14:18.173Z,3.58
2023-04-16T21:16:44.806Z,3.13
2023-04-16T21:19:11.594Z,3.28
2023-04-16T21:21:38.964Z,5.25
2023-04-16T21:24:05.726Z,3.70
2023-04-16T21:26:32.516Z,3.20
2023-04-16T21:28:59.335Z,3.00
2023-04-16T21:31:26.315Z,2.08
2023-04-16T21:33:52.987Z,4.57
2023-04-16T21:36:19.654Z,2.90
2023-04-16T21:38:46.363Z,3.53
2023-04-16T21:41:13.008Z,3.03
2023-04-16T21:43:39.741Z,3.22
2023-04-16T21:46:06.388Z,8.70
2023-04-16T21:48:33.033Z,4.60
2023-04-16T21:51:00.008Z,3.92
2023-04-16T21:53:28.185Z,3.22
2023-04-16T21:55:54.878Z,7.55
2023-04-16T21:58:21.567Z,2.95
2023-04-16T22:00:48.376Z,8.63
2023-04-16T22:03:17.453Z,4.88
2023-04-16T22:05:44.938Z,2.85
2023-04-16T22:10:43.967Z,2.28
2023-04-16T22:13:12.855Z,3.53
2023-04-16T22:15:39.976Z,8.18
2023-04-16T22:18:06.732Z,5.05
2023-04-16T22:20:39.132Z,4.65
2023-04-16T22:23:06.032Z,3.03
2023-04-16T22:25:32.848Z,4.13
2023-04-16T22:27:59.611Z,2.38
2023-04-16T22:30:26.344Z,2.28
2023-04-16T22:32:53.227Z,3.67
2023-04-16T22:35:19.873Z,2.33
2023-04-16T22:37:46.655Z,9.85
2023-04-16T22:40:13.376Z,9.80
2023-04-16T22:42:40.171Z,5.55
2023-04-16T22:45:07.510Z,3.95
2023-04-16T22:47:34.298Z,7.50
2023-04-16T22:50:01.094Z,4.82
2023-04-16T22:52:27.766Z,3.58
2023-04-16T22:54:54.463Z,2.95
2023-04-16T22:57:24.826Z,2.78
2023-04-16T22:59:51.737Z,4.10
2023-04-16T23:02:18.477Z,3.65
2023-04-16T23:04:46.225Z,5.65
2023-04-16T23:07:12.969Z,2.60
2023-04-16T23:09:39.608Z,5.65
2023-04-16T23:12:06.376Z,3.83
2023-04-16T23:14:33.083Z,3.35
2023-04-16T23:16:59.759Z,3.45
2023-04-16T23:19:26.520Z,3.40
2023-04-16T23:21:53.120Z,3.10
2023-04-16T23:24:19.816Z,4.80
2023-04-16T23:26:46.521Z,3.45
2023-04-16T23:29:13.447Z,3.88
2023-04-16T23:31:40.354Z,2.55
2023-04-16T23:34:07.233Z,5.70
2023-04-16T23:36:33.923Z,4.25
2023-04-16T23:39:00.911Z,3.22
2023-04-16T23:41:28.098Z,6.80
2023-04-16T23:43:54.734Z,3.33
2023-04-16T23:46:21.555Z,2.55
2023-04-16T23:48:48.252Z,2.45
2023-04-16T23:51:14.949Z,1.83
2023-04-16T23:53:41.605Z,2.08
2023-04-16T23:56:11.133Z,2.90
2023-04-16T23:58:38.031Z,2.63
